createdAt,value
2022-10-06T00:00:36.564Z,99058.44
2022-10-06T00:03:09.821Z,99059.27
2022-10-06T00:05:43.759Z,99060.14
2022-10-06T00:08:17.509Z,99046.31
2022-10-06T00:10:51.025Z,99047.17
2022-10-06T00:13:24.723Z,99044.55
2022-10-06T00:15:58.383Z,99048.89
2022-10-06T00:18:32.630Z,99059.27
2022-10-06T00:21:06.876Z,99057.52
2022-10-06T00:23:40.707Z,99054.90
2022-10-06T00:26:17.784Z,99059.20
2022-10-06T00:28:51.425Z,99071.34
2022-10-06T00:31:24.965Z,99064.47
2022-10-06T00:33:58.541Z,99064.47
2022-10-06T00:36:32.494Z,99060.98
2022-10-06T00:39:06.425Z,99064.47
2022-10-06T00:41:40.969Z,99064.47
2022-10-06T00:44:14.441Z,99053.23
2022-10-06T00:46:49.704Z,99058.45
2022-10-06T00:49:25.858Z,99057.56
2022-10-06T00:52:02.206Z,99055.92
2022-10-06T00:54:37.068Z,99055.99
2022-10-06T00:57:10.917Z,99054.26
2022-10-06T00:59:44.572Z,99061.23
2022-10-06T01:02:21.285Z,99065.63
2022-10-06T01:04:57.815Z,99060.50
2022-10-06T01:07:31.728Z,99060.54
2022-10-06T01:10:05.967Z,99062.35
2022-10-06T01:12:39.973Z,99058.06
2022-10-06T01:15:14.224Z,99059.84
2022-10-06T01:17:51.053Z,99056.41
2022-10-06T01:20:26.251Z,99056.44
2022-10-06T01:23:05.352Z,99058.23
2022-10-06T01:25:39.297Z,99057.39
2022-10-06T01:28:14.608Z,99051.35
2022-10-06T01:30:53.180Z,99060.06
2022-10-06T01:33:29.959Z,99053.97
2022-10-06T01:36:04.655Z,99055.70
2022-10-06T01:38:38.216Z,99053.11
2022-10-06T01:41:11.655Z,99051.35
2022-10-06T01:43:46.234Z,99053.11
2022-10-06T01:46:19.820Z,99060.06
2022-10-06T01:48:53.671Z,99051.38
2022-10-06T01:51:27.155Z,99058.34
2022-10-06T01:54:00.605Z,99053.16
2022-10-06T01:56:33.970Z,99062.73
2022-10-06T01:59:07.423Z,99075.73
2022-10-06T02:01:41.296Z,99066.26
2022-10-06T02:04:15.179Z,99069.82
2022-10-06T02:06:50.628Z,99075.03
2022-10-06T02:09:24.138Z,99067.29
2022-10-06T02:11:59.426Z,99062.95
2022-10-06T02:14:34.981Z,99068.19
2022-10-06T02:17:08.757Z,99067.41
2022-10-06T02:19:42.321Z,99054.52
2022-10-06T02:22:15.763Z,99054.53
2022-10-06T02:24:49.366Z,99052.89
2022-10-06T02:27:22.676Z,99050.27
2022-10-06T02:29:56.361Z,99052.83
2022-10-06T02:32:36.340Z,99053.69
2022-10-06T02:35:12.918Z,99055.40
2022-10-06T02:37:46.567Z,99056.29
2022-10-06T02:40:23.604Z,99058.91
2022-10-06T02:42:57.660Z,99071.02
2022-10-06T02:45:32.015Z,99083.16
2022-10-06T02:48:05.546Z,99081.37
2022-10-06T02:50:38.959Z,99084.81
2022-10-06T02:53:12.521Z,99074.43
2022-10-06T02:55:46.492Z,99080.45
2022-10-06T02:58:19.573Z,99082.20
2022-10-06T03:00:53.407Z,99081.35
2022-10-06T03:03:26.845Z,99084.81
2022-10-06T03:06:05.855Z,99081.37
2022-10-06T03:08:39.324Z,99083.12
2022-10-06T03:11:13.482Z,99081.37
2022-10-06T03:13:47.185Z,99086.59
2022-10-06T03:16:22.827Z,99077.11
2022-10-06T03:18:57.338Z,99084.91
2022-10-06T03:21:32.422Z,99084.03
2022-10-06T03:24:06.930Z,99080.67
2022-10-06T03:26:43.633Z,99083.30
2022-10-06T03:29:17.276Z,99083.31
2022-10-06T03:31:52.679Z,99078.16
2022-10-06T03:34:26.394Z,99081.63
2022-10-06T03:37:00.435Z,99076.45
2022-10-06T03:39:34.673Z,99084.24
2022-10-06T03:42:08.462Z,99085.14
2022-10-06T03:44:41.961Z,99085.16
2022-10-06T03:47:17.497Z,99087.80
2022-10-06T03:49:51.674Z,99098.27
2022-10-06T03:52:26.205Z,99094.00
2022-10-06T03:55:00.331Z,99095.80
2022-10-06T03:57:34.557Z,99091.46
2022-10-06T04:00:10.199Z,99090.62
2022-10-06T04:02:44.706Z,99085.52
2022-10-06T04:05:18.508Z,99076.84
2022-10-06T04:07:51.999Z,99084.66
2022-10-06T04:10:26.802Z,99085.52
2022-10-06T04:13:00.765Z,99083.83
2022-10-06T04:15:34.445Z,99086.52
2022-10-06T04:18:08.524Z,99081.33
2022-10-06T04:20:42.791Z,99092.59
2022-10-06T04:23:16.663Z,99082.26
2022-10-06T04:25:55.176Z,99079.69
2022-10-06T04:28:25.972Z,99091.93
2022-10-06T04:31:01.017Z,99085.89
2022-10-06T04:33:35.648Z,99086.83
2022-10-06T04:36:11.963Z,99086.88
2022-10-06T04:38:45.696Z,99093.84
2022-10-06T04:41:20.995Z,99093.03
2022-10-06T04:43:55.480Z,99097.39
2022-10-06T04:46:42.558Z,99106.89
2022-10-06T04:49:05.726Z,99111.21
2022-10-06T04:51:40.461Z,99109.45
2022-10-06T04:54:14.228Z,99108.64
2022-10-06T04:56:47.865Z,99106.12
2022-10-06T04:59:24.334Z,99102.73
2022-10-06T05:01:58.237Z,99105.35
2022-10-06T05:04:31.746Z,99106.30
2022-10-06T05:07:05.714Z,99102.01
2022-10-06T05:09:38.968Z,99105.55
2022-10-06T05:12:13.186Z,99099.55
2022-10-06T05:14:47.118Z,99099.58
2022-10-06T05:17:20.789Z,99110.83
2022-10-06T05:19:54.329Z,99108.31
2022-10-06T05:22:28.003Z,99108.44
2022-10-06T05:25:01.506Z,99105.84
2022-10-06T05:27:34.986Z,99109.31
2022-10-06T05:30:10.515Z,99114.57
2022-10-06T05:32:48.869Z,99111.97
2022-10-06T05:35:23.572Z,99105.91
2022-10-06T05:37:58.109Z,99104.22
2022-10-06T05:40:32.073Z,99119.01
2022-10-06T05:43:05.554Z,99119.86
2022-10-06T05:45:39.302Z,99127.69
2022-10-06T05:48:12.734Z,99122.52
2022-10-06T05:50:46.342Z,99119.08
2022-10-06T05:53:19.837Z,99129.52
2022-10-06T05:55:53.340Z,99120.80
2022-10-06T05:58:28.641Z,99117.31
2022-10-06T06:01:11.514Z,99124.25
2022-10-06T06:03:47.310Z,99122.61
2022-10-06T06:06:22.525Z,99118.30
2022-10-06T06:08:58.546Z,99117.46
2022-10-06T06:11:33.115Z,99114.91
2022-10-06T06:14:07.970Z,99119.38
2022-10-06T06:16:42.879Z,99118.88
2022-10-06T06:19:16.451Z,99118.11
2022-10-06T06:21:51.063Z,99118.14
2022-10-06T06:24:24.354Z,99122.47
2022-10-06T06:26:57.855Z,99119.00
2022-10-06T06:29:31.373Z,99120.73
2022-10-06T06:32:05.028Z,99118.95
2022-10-06T06:34:38.265Z,99119.83
2022-10-06T06:37:15.124Z,99120.66
2022-10-06T06:39:48.731Z,99113.69
2022-10-06T06:42:22.341Z,99118.88
2022-10-06T06:45:00.244Z,99116.23
2022-10-06T06:47:37.169Z,99116.14
2022-10-06T06:50:13.470Z,99116.14
2022-10-06T06:52:47.709Z,99115.23
2022-10-06T06:55:21.410Z,99108.30
2022-10-06T06:57:55.340Z,99103.14
2022-10-06T07:00:33.811Z,99106.70
2022-10-06T07:03:04.618Z,99110.30
2022-10-06T07:05:39.648Z,99112.05
2022-10-06T07:08:15.120Z,99105.95
2022-10-06T07:10:49.677Z,99115.53
2022-10-06T07:13:25.616Z,99121.66
2022-10-06T07:16:15.875Z,99111.15
2022-10-06T07:19:06.539Z,99118.14
2022-10-06T07:21:57.367Z,99112.88
2022-10-06T07:24:48.836Z,99101.55
2022-10-06T07:27:21.944Z,99105.92
2022-10-06T07:29:56.985Z,99109.41
2022-10-06T07:32:31.665Z,99093.74
2022-10-06T07:35:06.405Z,99100.70
2022-10-06T07:37:40.771Z,99103.30
2022-10-06T07:40:15.798Z,99102.47
2022-10-06T07:42:50.120Z,99094.61
2022-10-06T07:45:46.614Z,99096.34
2022-10-06T07:48:27.594Z,99092.88
2022-10-06T07:51:02.915Z,99095.48
2022-10-06T07:53:39.077Z,99095.47
2022-10-06T07:56:17.324Z,99094.58
2022-10-06T07:58:52.577Z,99094.58
2022-10-06T08:01:27.210Z,99102.45
2022-10-06T08:04:02.657Z,99104.22
2022-10-06T08:06:36.151Z,99105.94
2022-10-06T08:09:09.798Z,99098.09
2022-10-06T08:11:44.810Z,99100.69
2022-10-06T08:14:18.012Z,99094.55
2022-10-06T08:16:51.555Z,99097.16
2022-10-06T08:19:25.498Z,99101.50
2022-10-06T08:22:04.428Z,99101.51
2022-10-06T08:25:00.992Z,99095.40
2022-10-06T08:27:09.867Z,99099.73
2022-10-06T08:29:43.395Z,99107.54
2022-10-06T08:32:17.498Z,99101.45
2022-10-06T08:34:51.360Z,99094.51
2022-10-06T08:37:26.394Z,99105.88
2022-10-06T08:40:00.560Z,99110.26
2022-10-06T08:42:39.558Z,99104.16
2022-10-06T08:45:17.608Z,99101.55
2022-10-06T08:47:54.907Z,99109.41
2022-10-06T08:50:30.374Z,99114.66
2022-10-06T08:53:07.700Z,99115.52
2022-10-06T08:55:47.255Z,99127.70
2022-10-06T08:58:40.039Z,99109.41
2022-10-06T09:01:19.551Z,99120.72
2022-10-06T09:03:55.168Z,99117.19
2022-10-06T09:06:48.274Z,99114.55
2022-10-06T09:09:26.433Z,99098.87
2022-10-06T09:12:07.814Z,99101.52
2022-10-06T09:14:45.133Z,99108.45
2022-10-06T09:17:23.766Z,99116.27
2022-10-06T09:20:00.759Z,99109.30
2022-10-06T09:22:35.364Z,99099.70
2022-10-06T09:25:17.975Z,99097.98
2022-10-06T09:27:55.061Z,99098.02
2022-10-06T09:30:29.002Z,99092.80
2022-10-06T09:33:04.681Z,99087.60
2022-10-06T09:35:39.825Z,99097.19
2022-10-06T09:38:12.980Z,99098.08
2022-10-06T09:40:51.357Z,99093.70
2022-10-06T09:43:27.254Z,99091.09
2022-10-06T09:46:20.935Z,99088.48
2022-10-06T09:49:13.375Z,99100.69
2022-10-06T09:52:02.409Z,99104.16
2022-10-06T09:54:37.695Z,99099.80
2022-10-06T09:57:13.657Z,99107.67
2022-10-06T09:59:48.604Z,99100.67
2022-10-06T10:02:29.086Z,99086.77
2022-10-06T10:05:02.595Z,99102.47
2022-10-06T10:07:37.910Z,99087.65
2022-10-06T10:10:21.445Z,99084.17
2022-10-06T10:12:55.861Z,99089.41
2022-10-06T10:15:34.641Z,99087.64
2022-10-06T10:18:14.336Z,99077.16
2022-10-06T10:20:55.811Z,99073.61
2022-10-06T10:23:33.004Z,99064.02
2022-10-06T10:26:18.989Z,99073.55
2022-10-06T10:29:54.848Z,99077.80
2022-10-06T10:35:19.434Z,99088.20
2022-10-06T10:37:54.862Z,99087.40
2022-10-06T10:40:38.938Z,99083.86
2022-10-06T10:43:23.194Z,99100.52
2022-10-06T10:46:00.920Z,99099.72
2022-10-06T10:48:37.243Z,99095.39
2022-10-06T10:51:13.732Z,99099.80
2022-10-06T10:53:50.724Z,99094.55
2022-10-06T10:56:26.739Z,99103.30
2022-10-06T10:59:04.292Z,99103.30
2022-10-06T11:01:41.406Z,99084.13
2022-10-06T11:04:15.677Z,99093.72
2022-10-06T11:07:07.259Z,99098.94
2022-10-06T11:09:45.849Z,99098.95
2022-10-06T11:12:26.218Z,99104.22
2022-10-06T11:15:02.420Z,99100.70
2022-10-06T11:17:49.770Z,99100.69
2022-10-06T11:20:39.378Z,99099.81
2022-10-06T11:23:24.192Z,99105.07
2022-10-06T11:26:02.077Z,99092.83
2022-10-06T11:28:35.623Z,99087.59
2022-10-06T11:31:20.228Z,99086.73
2022-10-06T11:33:55.291Z,99096.34
2022-10-06T11:36:36.514Z,99099.85
2022-10-06T11:39:19.215Z,99098.09
2022-10-06T11:41:58.513Z,99085.90
2022-10-06T11:44:34.607Z,99087.60
2022-10-06T11:47:11.196Z,99084.08
2022-10-06T11:49:53.510Z,99071.00
2022-10-06T11:55:34.782Z,99057.77
2022-10-06T11:58:40.764Z,99077.01
2022-10-06T12:00:52.912Z,99070.88
2022-10-06T12:03:49.674Z,99074.35
2022-10-06T12:07:11.691Z,99066.44
2022-10-06T12:09:53.388Z,99066.45
2022-10-06T12:13:31.823Z,99062.11
2022-10-06T12:18:53.196Z,99053.35
2022-10-06T12:21:43.008Z,99068.20
2022-10-06T12:27:39.111Z,99057.52
2022-10-06T12:30:23.053Z,99053.22
2022-10-06T12:32:58.529Z,99043.57
2022-10-06T12:35:35.196Z,99047.02
2022-10-06T12:38:18.143Z,99044.38
2022-10-06T12:40:56.422Z,99039.20
2022-10-06T12:44:04.009Z,99063.72
2022-10-06T12:46:43.680Z,99056.73
2022-10-06T12:49:51.920Z,99043.57
2022-10-06T12:52:39.058Z,99034.00
2022-10-06T12:55:33.091Z,99038.39
2022-10-06T12:58:08.184Z,99037.52
2022-10-06T13:00:45.011Z,99041.05
2022-10-06T13:03:22.608Z,99046.37
2022-10-06T13:05:59.420Z,99047.27
2022-10-06T13:08:35.504Z,99043.81
2022-10-06T13:11:20.811Z,99046.43
2022-10-06T13:13:55.925Z,99051.66
2022-10-06T13:16:32.107Z,99059.52
2022-10-06T13:19:06.394Z,99041.19
2022-10-06T13:21:39.982Z,99043.84
2022-10-06T13:24:16.884Z,99048.23
2022-10-06T13:26:50.999Z,99047.38
2022-10-06T13:29:26.193Z,99048.27
2022-10-06T13:31:59.860Z,99049.14
2022-10-06T13:34:37.252Z,99041.33
2022-10-06T13:37:15.140Z,99035.23
2022-10-06T13:39:49.000Z,99048.30
2022-10-06T13:42:23.500Z,99052.61
2022-10-06T13:45:11.220Z,99052.61
2022-10-06T13:47:44.873Z,99042.14
2022-10-06T13:50:20.667Z,99048.25
2022-10-06T13:52:53.838Z,99049.11
2022-10-06T13:55:29.104Z,99050.00
2022-10-06T13:58:15.847Z,99049.15
2022-10-06T14:00:56.367Z,99045.65
2022-10-06T14:06:15.814Z,99050.02
2022-10-06T14:08:52.550Z,99033.42
2022-10-06T14:11:28.245Z,99039.55
2022-10-06T14:14:03.777Z,99050.07
2022-10-06T14:16:37.268Z,99050.92
2022-10-06T14:19:23.894Z,99040.42
2022-10-06T14:21:57.522Z,99038.71
2022-10-06T14:24:34.326Z,99039.59
2022-10-06T14:27:08.945Z,99042.20
2022-10-06T14:29:42.237Z,99033.46
2022-10-06T14:32:18.247Z,99045.66
2022-10-06T14:34:51.865Z,99051.80
2022-10-06T14:37:25.299Z,99049.19
2022-10-06T14:39:58.966Z,99041.32
2022-10-06T14:42:34.607Z,99040.47
2022-10-06T14:45:10.104Z,99045.67
2022-10-06T14:47:43.281Z,99075.36
2022-10-06T14:50:17.077Z,99054.41
2022-10-06T14:52:50.805Z,99052.67
2022-10-06T14:55:26.181Z,99047.44
2022-10-06T14:57:59.987Z,99036.98
2022-10-06T15:00:33.759Z,99051.78
2022-10-06T15:03:07.667Z,99052.66
2022-10-06T15:06:03.179Z,99048.34
2022-10-06T15:08:36.947Z,99053.56
2022-10-06T15:11:10.363Z,99051.82
2022-10-06T15:13:43.971Z,99043.07
2022-10-06T15:16:18.488Z,99038.70
2022-10-06T15:18:52.586Z,99055.28
2022-10-06T15:21:27.086Z,99044.81
2022-10-06T15:24:02.151Z,99051.80
2022-10-06T15:26:53.414Z,99048.33
2022-10-06T15:29:26.932Z,99050.92
2022-10-06T15:32:00.726Z,99065.79
2022-10-06T15:34:36.409Z,99047.45
2022-10-06T15:37:10.187Z,99064.92
2022-10-06T15:39:45.758Z,99042.21
2022-10-06T15:42:21.099Z,99037.86
2022-10-06T15:44:55.325Z,99036.11
2022-10-06T15:47:29.343Z,99032.60
2022-10-06T15:50:03.683Z,99037.86
2022-10-06T15:52:37.033Z,99036.09
2022-10-06T15:55:12.250Z,99040.47
2022-10-06T15:57:45.299Z,99033.48
2022-10-06T16:00:19.401Z,99026.50
2022-10-06T16:02:52.600Z,99029.10
2022-10-06T16:05:34.720Z,99043.08
2022-10-06T16:08:07.841Z,99028.25
2022-10-06T16:10:41.212Z,99022.12
2022-10-06T16:13:15.382Z,99031.74
2022-10-06T16:15:54.425Z,99025.64
2022-10-06T16:18:28.715Z,99039.59
2022-10-06T16:21:02.093Z,99032.63
2022-10-06T16:23:36.002Z,99035.25
2022-10-06T16:26:09.929Z,99029.13
2022-10-06T16:28:43.415Z,99039.60
2022-10-06T16:31:16.917Z,99040.48
2022-10-06T16:33:50.935Z,99024.78
2022-10-06T16:36:27.624Z,99024.78
2022-10-06T16:39:01.124Z,99033.48
2022-10-06T16:41:34.741Z,99017.80
2022-10-06T16:44:08.394Z,99029.12
2022-10-06T16:46:42.806Z,99019.55
2022-10-06T16:49:16.877Z,99028.24
2022-10-06T16:51:50.304Z,99023.89
2022-10-06T16:54:25.110Z,99023.00
2022-10-06T16:57:08.945Z,99023.02
2022-10-06T16:59:46.578Z,99022.14
2022-10-06T17:02:17.560Z,99019.53
2022-10-06T17:04:51.740Z,99020.39
2022-10-06T17:07:25.531Z,99020.40
2022-10-06T17:10:18.886Z,99027.36
2022-10-06T17:12:35.192Z,99002.94
2022-10-06T17:15:10.537Z,99012.55
2022-10-06T17:17:44.111Z,99017.78
2022-10-06T17:20:19.843Z,99017.78
2022-10-06T17:22:55.350Z,99006.42
2022-10-06T17:25:30.332Z,99008.16
2022-10-06T17:28:13.807Z,98992.47
2022-10-06T17:30:57.648Z,99004.66
2022-10-06T17:33:34.550Z,99012.52
2022-10-06T17:36:11.455Z,98999.45
2022-10-06T17:38:47.647Z,99001.20
2022-10-06T17:41:29.474Z,98995.09
2022-10-06T17:44:04.182Z,98993.34
2022-10-06T17:49:44.342Z,98988.97
2022-10-06T17:52:23.949Z,98982.87
2022-10-06T17:55:00.343Z,98982.87
2022-10-06T17:57:53.093Z,98982.89
2022-10-06T18:00:27.591Z,98971.54
2022-10-06T18:03:01.097Z,98976.78
2022-10-06T18:05:34.557Z,98977.66
2022-10-06T18:08:08.959Z,98968.92
2022-10-06T18:11:07.137Z,98974.14
2022-10-06T18:13:40.637Z,98970.65
2022-10-06T18:16:18.570Z,98957.55
2022-10-06T18:18:54.695Z,98949.70
2022-10-06T18:21:31.296Z,98956.70
2022-10-06T18:24:05.268Z,98946.30
2022-10-06T18:26:40.298Z,98941.04
2022-10-06T18:29:14.043Z,98945.43
2022-10-06T18:31:49.015Z,98953.30
2022-10-06T18:36:57.883Z,98949.84
2022-10-06T18:39:32.142Z,98949.83
2022-10-06T18:42:05.871Z,98950.70
2022-10-06T18:44:56.566Z,98942.84
2022-10-06T18:47:47.584Z,98945.44
2022-10-06T18:50:21.006Z,98943.70
2022-10-06T18:52:56.457Z,98940.20
2022-10-06T18:55:30.145Z,98936.70
2022-10-06T18:58:04.896Z,98941.06
2022-10-06T19:00:39.594Z,98940.18
2022-10-06T19:03:12.676Z,98927.09
2022-10-06T19:05:54.801Z,98937.58
2022-10-06T19:08:28.707Z,98925.36
2022-10-06T19:11:23.488Z,98930.59
2022-10-06T19:13:58.019Z,98927.11
2022-10-06T19:16:31.579Z,98938.42
2022-10-06T19:19:09.029Z,98925.36
2022-10-06T19:21:44.098Z,98934.08
2022-10-06T19:24:20.335Z,98938.44
2022-10-06T19:26:55.935Z,98930.57
2022-10-06T19:29:31.295Z,98943.67
2022-10-06T19:32:06.364Z,98934.09
2022-10-06T19:34:40.306Z,98935.80
2022-10-06T19:37:14.289Z,98936.69
2022-10-06T19:39:50.385Z,98930.59
2022-10-06T19:43:01.417Z,98927.11
2022-10-06T19:48:16.483Z,98928.80
2022-10-06T19:50:52.034Z,98933.22
2022-10-06T19:53:32.929Z,98912.33
2022-10-06T19:56:07.899Z,98936.70
2022-10-06T19:58:42.558Z,98935.83
2022-10-06T20:01:17.687Z,98915.75
2022-10-06T20:03:51.181Z,98916.64
2022-10-06T20:06:26.175Z,98928.86
2022-10-06T20:09:01.747Z,98926.21
2022-10-06T20:11:36.711Z,98930.58
2022-10-06T20:14:15.884Z,98912.27
2022-10-06T20:16:50.993Z,98916.59
2022-10-06T20:19:25.649Z,98911.37
2022-10-06T20:21:59.452Z,98907.89
2022-10-06T20:24:34.048Z,98917.50
2022-10-06T20:27:07.525Z,98921.85
2022-10-06T20:29:41.038Z,98920.11
2022-10-06T20:32:14.545Z,98912.25
2022-10-06T20:34:47.686Z,98912.25
2022-10-06T20:37:21.008Z,98919.22
2022-10-06T20:40:11.968Z,98910.53
2022-10-06T20:42:47.136Z,98912.25
2022-10-06T20:45:21.147Z,98934.09
2022-10-06T20:47:54.487Z,98921.88
2022-10-06T20:50:27.776Z,98926.23
2022-10-06T20:53:01.479Z,98921.02
2022-10-06T20:55:35.226Z,98919.28
2022-10-06T20:58:09.415Z,98920.16
2022-10-06T21:00:43.101Z,98914.95
2022-10-06T21:03:17.360Z,98922.80
2022-10-06T21:05:54.174Z,98911.50
2022-10-06T21:08:27.838Z,98913.23
2022-10-06T21:11:02.688Z,98917.61
2022-10-06T21:13:36.190Z,98918.47
2022-10-06T21:16:11.887Z,98920.22
2022-10-06T21:18:46.445Z,98920.22
2022-10-06T21:21:20.363Z,98922.84
2022-10-06T21:23:54.015Z,98921.95
2022-10-06T21:26:30.763Z,98926.34
2022-10-06T21:29:04.903Z,98925.48
2022-10-06T21:31:38.211Z,98927.22
2022-10-06T21:34:11.998Z,98930.70
2022-10-06T21:36:46.109Z,98922.00
2022-10-06T21:39:19.833Z,98925.47
2022-10-06T21:41:52.918Z,98922.88
2022-10-06T21:44:26.307Z,98920.23
2022-10-06T21:47:01.397Z,98917.63
2022-10-06T21:49:35.046Z,98926.34
2022-10-06T21:52:08.683Z,98926.36
2022-10-06T21:54:42.225Z,98929.86
2022-10-06T21:57:16.234Z,98941.18
2022-10-06T21:59:49.788Z,98933.33
2022-10-06T22:02:23.250Z,98941.18
2022-10-06T22:04:56.865Z,98935.06
2022-10-06T22:07:30.188Z,98938.55
2022-10-06T22:10:03.952Z,98935.92
2022-10-06T22:12:37.306Z,98947.30
2022-10-06T22:15:12.451Z,98946.41
2022-10-06T22:17:47.639Z,98944.64
2022-10-06T22:20:21.779Z,98948.98
2022-10-06T22:22:55.103Z,98940.30
2022-10-06T22:25:28.698Z,98948.13
2022-10-06T22:28:02.328Z,98954.25
2022-10-06T22:30:35.818Z,98958.58
2022-10-06T22:33:08.912Z,98952.48
2022-10-06T22:35:43.480Z,98958.58
2022-10-06T22:38:16.669Z,98959.46
2022-10-06T22:40:50.029Z,98956.83
2022-10-06T22:43:23.427Z,98949.85
2022-10-06T22:45:56.578Z,98967.33
2022-10-06T22:48:30.583Z,98956.84
2022-10-06T22:51:04.182Z,98956.84
2022-10-06T22:53:37.566Z,98954.25
2022-10-06T22:56:11.359Z,98969.95
2022-10-06T22:58:45.210Z,98956.87
2022-10-06T23:01:20.012Z,98954.27
2022-10-06T23:03:54.761Z,98962.13
2022-10-06T23:06:29.909Z,98956.03
2022-10-06T23:09:03.829Z,98956.02
2022-10-06T23:11:37.233Z,98956.92
2022-10-06T23:14:10.813Z,98956.03
2022-10-06T23:16:44.375Z,98957.78
2022-10-06T23:19:17.822Z,98963.03
2022-10-06T23:21:51.455Z,98956.93
2022-10-06T23:24:24.816Z,98971.73
2022-10-06T23:27:00.178Z,98963.90
2022-10-06T23:29:33.806Z,98972.59
2022-10-06T23:32:07.302Z,98977.84
2022-10-06T23:34:40.795Z,98976.08
2022-10-06T23:37:14.495Z,98981.30
2022-10-06T23:39:48.068Z,98978.70
2022-10-06T23:42:21.101Z,98974.34
2022-10-06T23:44:54.543Z,98975.20
2022-10-06T23:47:28.130Z,98990.01
2022-10-06T23:50:01.163Z,98996.98
2022-10-06T23:52:34.667Z,98996.13
2022-10-06T23:55:09.305Z,99004.84
2022-10-06T23:57:43.023Z,98992.64
